sensor_id;sensor_type;location;lat;lon;timestamp;P1;durP1;ratioP1;P2;durP2;ratioP2
18200;SDS011;9226;47.858;9.594;2023-08-31T00:01:35;6.13;;;4.50;;
18200;SDS011;9226;47.858;9.594;2023-08-31T00:04:01;6.77;;;4.43;;
18200;SDS011;9226;47.858;9.594;2023-08-31T00:06:27;5.57;;;3.97;;
18200;SDS011;9226;47.858;9.594;2023-08-31T00:08:52;5.80;;;4.10;;
18200;SDS011;9226;47.858;9.594;2023-08-31T00:11:18;6.17;;;3.97;;
18200;SDS011;9226;47.858;9.594;2023-08-31T00:13:43;4.77;;;3.83;;
18200;SDS011;9226;47.858;9.594;2023-08-31T00:16:08;5.90;;;4.43;;
18200;SDS011;9226;47.858;9.594;2023-08-31T00:18:34;6.43;;;4.00;;
18200;SDS011;9226;47.858;9.594;2023-08-31T00:21:01;5.27;;;4.13;;
18200;SDS011;9226;47.858;9.594;2023-08-31T00:23:27;5.90;;;4.23;;
18200;SDS011;9226;47.858;9.594;2023-08-31T00:25:53;6.50;;;4.20;;
18200;SDS011;9226;47.858;9.594;2023-08-31T00:28:18;6.73;;;4.10;;
18200;SDS011;9226;47.858;9.594;2023-08-31T00:30:44;5.90;;;4.27;;
18200;SDS011;9226;47.858;9.594;2023-08-31T00:33:11;5.67;;;4.50;;
18200;SDS011;9226;47.858;9.594;2023-08-31T00:35:40;6.13;;;4.07;;
18200;SDS011;9226;47.858;9.594;2023-08-31T00:38:12;7.37;;;4.57;;
18200;SDS011;9226;47.858;9.594;2023-08-31T00:40:39;7.27;;;4.47;;
18200;SDS011;9226;47.858;9.594;2023-08-31T00:43:10;5.70;;;4.03;;
18200;SDS011;9226;47.858;9.594;2023-08-31T00:45:35;9.00;;;4.20;;
18200;SDS011;9226;47.858;9.594;2023-08-31T00:48:03;6.07;;;4.13;;
18200;SDS011;9226;47.858;9.594;2023-08-31T00:50:29;6.60;;;4.20;;
18200;SDS011;9226;47.858;9.594;2023-08-31T00:52:55;7.73;;;4.07;;
18200;SDS011;9226;47.858;9.594;2023-08-31T00:55:20;6.93;;;4.23;;
18200;SDS011;9226;47.858;9.594;2023-08-31T00:57:45;6.03;;;4.07;;
18200;SDS011;9226;47.858;9.594;2023-08-31T01:00:11;10.97;;;4.47;;
18200;SDS011;9226;47.858;9.594;2023-08-31T01:07:58;4.63;;;3.20;;
18200;SDS011;9226;47.858;9.594;2023-08-31T01:13:15;4.30;;;2.87;;
18200;SDS011;9226;47.858;9.594;2023-08-31T01:15:54;5.07;;;3.10;;
18200;SDS011;9226;47.858;9.594;2023-08-31T01:18:23;3.83;;;2.47;;
18200;SDS011;9226;47.858;9.594;2023-08-31T01:21:00;5.90;;;2.27;;
18200;SDS011;9226;47.858;9.594;2023-08-31T01:23:43;3.83;;;2.00;;
18200;SDS011;9226;47.858;9.594;2023-08-31T01:26:09;3.17;;;2.37;;
18200;SDS011;9226;47.858;9.594;2023-08-31T01:28:35;2.80;;;2.00;;
18200;SDS011;9226;47.858;9.594;2023-08-31T01:31:03;2.70;;;2.00;;
18200;SDS011;9226;47.858;9.594;2023-08-31T01:36:53;3.33;;;2.00;;
18200;SDS011;9226;47.858;9.594;2023-08-31T01:39:58;3.27;;;1.87;;
18200;SDS011;9226;47.858;9.594;2023-08-31T01:42:19;2.53;;;1.70;;
18200;SDS011;9226;47.858;9.594;2023-08-31T01:44:46;2.67;;;1.70;;
18200;SDS011;9226;47.858;9.594;2023-08-31T01:47:13;2.30;;;1.70;;
18200;SDS011;9226;47.858;9.594;2023-08-31T01:49:41;2.10;;;1.40;;
18200;SDS011;9226;47.858;9.594;2023-08-31T01:52:08;2.10;;;1.50;;
18200;SDS011;9226;47.858;9.594;2023-08-31T01:54:33;1.93;;;1.30;;
18200;SDS011;9226;47.858;9.594;2023-08-31T01:56:59;2.80;;;1.67;;
18200;SDS011;9226;47.858;9.594;2023-08-31T01:59:25;2.57;;;1.30;;
18200;SDS011;9226;47.858;9.594;2023-08-31T02:01:51;2.90;;;1.40;;
18200;SDS011;9226;47.858;9.594;2023-08-31T02:04:17;2.93;;;1.60;;
18200;SDS011;9226;47.858;9.594;2023-08-31T02:06:42;2.13;;;1.50;;
18200;SDS011;9226;47.858;9.594;2023-08-31T02:09:08;3.03;;;1.67;;
18200;SDS011;9226;47.858;9.594;2023-08-31T02:11:33;3.53;;;1.60;;
18200;SDS011;9226;47.858;9.594;2023-08-31T02:14:03;2.80;;;1.60;;
18200;SDS011;9226;47.858;9.594;2023-08-31T02:16:29;5.97;;;1.80;;
18200;SDS011;9226;47.858;9.594;2023-08-31T02:18:55;4.40;;;1.70;;
18200;SDS011;9226;47.858;9.594;2023-08-31T02:21:20;3.20;;;1.40;;
18200;SDS011;9226;47.858;9.594;2023-08-31T02:23:46;3.13;;;1.80;;
18200;SDS011;9226;47.858;9.594;2023-08-31T02:26:11;2.43;;;1.80;;
18200;SDS011;9226;47.858;9.594;2023-08-31T02:28:37;1.53;;;1.33;;
18200;SDS011;9226;47.858;9.594;2023-08-31T02:31:02;2.63;;;1.63;;
18200;SDS011;9226;47.858;9.594;2023-08-31T02:33:28;3.47;;;1.70;;
18200;SDS011;9226;47.858;9.594;2023-08-31T02:35:54;1.70;;;1.40;;
18200;SDS011;9226;47.858;9.594;2023-08-31T02:38:20;4.40;;;1.93;;
18200;SDS011;9226;47.858;9.594;2023-08-31T02:40:46;2.77;;;1.90;;
18200;SDS011;9226;47.858;9.594;2023-08-31T02:43:12;3.00;;;1.60;;
18200;SDS011;9226;47.858;9.594;2023-08-31T02:45:38;3.17;;;2.07;;
18200;SDS011;9226;47.858;9.594;2023-08-31T02:48:03;3.00;;;1.80;;
18200;SDS011;9226;47.858;9.594;2023-08-31T02:50:31;2.90;;;1.70;;
18200;SDS011;9226;47.858;9.594;2023-08-31T02:52:56;2.43;;;1.77;;
18200;SDS011;9226;47.858;9.594;2023-08-31T02:55:22;2.60;;;1.53;;
18200;SDS011;9226;47.858;9.594;2023-08-31T02:57:48;2.90;;;1.77;;
18200;SDS011;9226;47.858;9.594;2023-08-31T03:00:13;3.70;;;1.77;;
18200;SDS011;9226;47.858;9.594;2023-08-31T03:02:40;3.17;;;1.90;;
18200;SDS011;9226;47.858;9.594;2023-08-31T03:05:05;3.57;;;1.83;;
18200;SDS011;9226;47.858;9.594;2023-08-31T03:07:31;5.37;;;1.77;;
18200;SDS011;9226;47.858;9.594;2023-08-31T03:09:57;3.43;;;1.80;;
18200;SDS011;9226;47.858;9.594;2023-08-31T03:12:22;4.30;;;1.70;;
18200;SDS011;9226;47.858;9.594;2023-08-31T03:14:48;3.27;;;1.80;;
18200;SDS011;9226;47.858;9.594;2023-08-31T03:17:13;4.07;;;1.77;;
18200;SDS011;9226;47.858;9.594;2023-08-31T03:19:38;2.17;;;1.70;;
18200;SDS011;9226;47.858;9.594;2023-08-31T03:22:04;4.43;;;2.47;;
18200;SDS011;9226;47.858;9.594;2023-08-31T03:24:31;3.30;;;2.00;;
18200;SDS011;9226;47.858;9.594;2023-08-31T03:26:57;3.10;;;1.90;;
18200;SDS011;9226;47.858;9.594;2023-08-31T03:29:23;3.63;;;2.10;;
18200;SDS011;9226;47.858;9.594;2023-08-31T03:31:48;2.80;;;1.80;;
18200;SDS011;9226;47.858;9.594;2023-08-31T03:34:13;2.97;;;1.97;;
18200;SDS011;9226;47.858;9.594;2023-08-31T03:36:39;2.73;;;1.90;;
18200;SDS011;9226;47.858;9.594;2023-08-31T03:39:04;3.47;;;2.27;;
18200;SDS011;9226;47.858;9.594;2023-08-31T03:41:30;6.23;;;2.17;;
18200;SDS011;9226;47.858;9.594;2023-08-31T03:43:55;3.27;;;2.10;;
18200;SDS011;9226;47.858;9.594;2023-08-31T03:46:21;3.20;;;2.10;;
18200;SDS011;9226;47.858;9.594;2023-08-31T03:48:46;4.90;;;2.10;;
18200;SDS011;9226;47.858;9.594;2023-08-31T03:51:12;5.67;;;2.30;;
18200;SDS011;9226;47.858;9.594;2023-08-31T03:53:37;4.87;;;2.10;;
18200;SDS011;9226;47.858;9.594;2023-08-31T03:56:03;5.77;;;2.23;;
18200;SDS011;9226;47.858;9.594;2023-08-31T03:58:29;4.87;;;2.13;;
18200;SDS011;9226;47.858;9.594;2023-08-31T04:00:55;3.80;;;2.20;;
18200;SDS011;9226;47.858;9.594;2023-08-31T04:03:21;3.80;;;2.10;;
18200;SDS011;9226;47.858;9.594;2023-08-31T04:05:47;5.03;;;1.93;;
18200;SDS011;9226;47.858;9.594;2023-08-31T04:08:12;5.47;;;1.90;;
18200;SDS011;9226;47.858;9.594;2023-08-31T04:10:38;4.33;;;2.10;;
18200;SDS011;9226;47.858;9.594;2023-08-31T04:13:03;5.40;;;2.30;;
18200;SDS011;9226;47.858;9.594;2023-08-31T04:15:29;3.57;;;2.30;;
18200;SDS011;9226;47.858;9.594;2023-08-31T04:17:55;5.07;;;2.57;;
18200;SDS011;9226;47.858;9.594;2023-08-31T04:20:21;3.50;;;2.40;;
18200;SDS011;9226;47.858;9.594;2023-08-31T04:22:47;3.80;;;2.33;;
18200;SDS011;9226;47.858;9.594;2023-08-31T04:25:13;5.50;;;2.33;;
18200;SDS011;9226;47.858;9.594;2023-08-31T04:27:38;6.90;;;2.43;;
18200;SDS011;9226;47.858;9.594;2023-08-31T04:30:06;5.57;;;2.37;;
18200;SDS011;9226;47.858;9.594;2023-08-31T04:32:32;6.97;;;2.30;;
18200;SDS011;9226;47.858;9.594;2023-08-31T04:34:58;3.90;;;2.20;;
18200;SDS011;9226;47.858;9.594;2023-08-31T04:37:23;3.70;;;2.33;;
18200;SDS011;9226;47.858;9.594;2023-08-31T04:39:49;4.03;;;2.53;;
18200;SDS011;9226;47.858;9.594;2023-08-31T04:42:14;6.70;;;2.90;;
18200;SDS011;9226;47.858;9.594;2023-08-31T04:44:41;3.63;;;2.40;;
18200;SDS011;9226;47.858;9.594;2023-08-31T04:47:07;11.53;;;2.80;;
18200;SDS011;9226;47.858;9.594;2023-08-31T04:49:33;6.17;;;2.63;;
18200;SDS011;9226;47.858;9.594;2023-08-31T04:51:58;7.60;;;2.73;;
18200;SDS011;9226;47.858;9.594;2023-08-31T04:54:24;9.63;;;2.90;;
18200;SDS011;9226;47.858;9.594;2023-08-31T04:56:50;3.23;;;2.20;;
18200;SDS011;9226;47.858;9.594;2023-08-31T04:59:16;6.00;;;2.80;;
18200;SDS011;9226;47.858;9.594;2023-08-31T05:01:41;5.13;;;2.63;;
18200;SDS011;9226;47.858;9.594;2023-08-31T05:04:06;5.53;;;2.83;;
18200;SDS011;9226;47.858;9.594;2023-08-31T05:06:32;5.90;;;2.47;;
18200;SDS011;9226;47.858;9.594;2023-08-31T05:08:57;4.97;;;2.87;;
18200;SDS011;9226;47.858;9.594;2023-08-31T05:11:23;6.03;;;2.93;;
18200;SDS011;9226;47.858;9.594;2023-08-31T05:13:48;10.13;;;3.27;;
18200;SDS011;9226;47.858;9.594;2023-08-31T05:16:14;4.63;;;3.00;;
18200;SDS011;9226;47.858;9.594;2023-08-31T05:18:39;6.00;;;2.90;;
18200;SDS011;9226;47.858;9.594;2023-08-31T05:21:05;5.00;;;2.93;;
18200;SDS011;9226;47.858;9.594;2023-08-31T05:23:31;9.03;;;3.17;;
18200;SDS011;9226;47.858;9.594;2023-08-31T05:25:57;5.40;;;2.93;;
18200;SDS011;9226;47.858;9.594;2023-08-31T05:28:23;5.47;;;2.93;;
18200;SDS011;9226;47.858;9.594;2023-08-31T05:30:49;7.73;;;2.80;;
18200;SDS011;9226;47.858;9.594;2023-08-31T05:33:15;5.67;;;2.60;;
18200;SDS011;9226;47.858;9.594;2023-08-31T05:35:41;9.57;;;2.77;;
18200;SDS011;9226;47.858;9.594;2023-08-31T05:38:07;4.97;;;3.23;;
18200;SDS011;9226;47.858;9.594;2023-08-31T05:40:32;6.87;;;3.03;;
18200;SDS011;9226;47.858;9.594;2023-08-31T05:42:57;7.17;;;3.33;;
18200;SDS011;9226;47.858;9.594;2023-08-31T05:45:23;9.07;;;3.10;;
18200;SDS011;9226;47.858;9.594;2023-08-31T05:47:48;4.60;;;3.10;;
18200;SDS011;9226;47.858;9.594;2023-08-31T05:50:14;5.10;;;3.13;;
18200;SDS011;9226;47.858;9.594;2023-08-31T05:52:39;4.03;;;2.70;;
18200;SDS011;9226;47.858;9.594;2023-08-31T05:55:09;5.37;;;2.47;;
18200;SDS011;9226;47.858;9.594;2023-08-31T05:57:35;4.07;;;2.83;;
18200;SDS011;9226;47.858;9.594;2023-08-31T06:00:00;5.30;;;3.00;;
18200;SDS011;9226;47.858;9.594;2023-08-31T06:02:26;4.23;;;2.80;;
18200;SDS011;9226;47.858;9.594;2023-08-31T06:04:51;4.90;;;3.20;;
18200;SDS011;9226;47.858;9.594;2023-08-31T06:07:16;6.37;;;3.23;;
18200;SDS011;9226;47.858;9.594;2023-08-31T06:09:42;5.63;;;3.53;;
18200;SDS011;9226;47.858;9.594;2023-08-31T06:12:07;6.03;;;3.10;;
18200;SDS011;9226;47.858;9.594;2023-08-31T06:14:33;7.60;;;2.90;;
18200;SDS011;9226;47.858;9.594;2023-08-31T06:16:58;5.17;;;3.20;;
18200;SDS011;9226;47.858;9.594;2023-08-31T06:19:23;6.10;;;3.37;;
18200;SDS011;9226;47.858;9.594;2023-08-31T06:21:49;5.33;;;3.20;;
18200;SDS011;9226;47.858;9.594;2023-08-31T06:24:14;5.57;;;3.33;;
18200;SDS011;9226;47.858;9.594;2023-08-31T06:26:40;7.57;;;4.03;;
18200;SDS011;9226;47.858;9.594;2023-08-31T06:29:05;10.37;;;3.77;;
18200;SDS011;9226;47.858;9.594;2023-08-31T06:31:31;7.43;;;4.20;;
18200;SDS011;9226;47.858;9.594;2023-08-31T06:33:56;7.00;;;4.27;;
18200;SDS011;9226;47.858;9.594;2023-08-31T06:36:23;6.63;;;3.70;;
18200;SDS011;9226;47.858;9.594;2023-08-31T06:38:48;5.07;;;3.70;;
18200;SDS011;9226;47.858;9.594;2023-08-31T06:41:14;6.53;;;3.97;;
18200;SDS011;9226;47.858;9.594;2023-08-31T06:43:40;5.40;;;3.83;;
18200;SDS011;9226;47.858;9.594;2023-08-31T06:46:06;6.17;;;4.00;;
18200;SDS011;9226;47.858;9.594;2023-08-31T06:48:31;6.67;;;3.70;;
18200;SDS011;9226;47.858;9.594;2023-08-31T06:50:56;4.90;;;3.40;;
18200;SDS011;9226;47.858;9.594;2023-08-31T06:53:22;6.17;;;3.13;;
18200;SDS011;9226;47.858;9.594;2023-08-31T06:55:47;5.20;;;3.10;;
18200;SDS011;9226;47.858;9.594;2023-08-31T06:58:13;4.47;;;2.90;;
18200;SDS011;9226;47.858;9.594;2023-08-31T07:00:38;5.63;;;3.10;;
18200;SDS011;9226;47.858;9.594;2023-08-31T07:03:04;5.80;;;2.87;;
18200;SDS011;9226;47.858;9.594;2023-08-31T07:05:33;4.97;;;2.90;;
18200;SDS011;9226;47.858;9.594;2023-08-31T07:08:00;2.87;;;2.17;;
18200;SDS011;9226;47.858;9.594;2023-08-31T07:10:27;5.87;;;2.50;;
18200;SDS011;9226;47.858;9.594;2023-08-31T07:12:53;3.40;;;2.40;;
18200;SDS011;9226;47.858;9.594;2023-08-31T07:15:18;4.13;;;2.20;;
18200;SDS011;9226;47.858;9.594;2023-08-31T07:17:44;3.27;;;2.20;;
18200;SDS011;9226;47.858;9.594;2023-08-31T07:20:09;5.50;;;2.20;;
18200;SDS011;9226;47.858;9.594;2023-08-31T07:22:36;3.20;;;2.10;;
18200;SDS011;9226;47.858;9.594;2023-08-31T07:25:02;3.70;;;2.20;;
18200;SDS011;9226;47.858;9.594;2023-08-31T07:27:28;3.83;;;2.10;;
18200;SDS011;9226;47.858;9.594;2023-08-31T07:29:54;5.40;;;2.40;;
18200;SDS011;9226;47.858;9.594;2023-08-31T07:32:20;4.57;;;2.00;;
18200;SDS011;9226;47.858;9.594;2023-08-31T07:34:45;5.90;;;2.00;;
18200;SDS011;9226;47.858;9.594;2023-08-31T07:37:10;2.37;;;1.50;;
18200;SDS011;9226;47.858;9.594;2023-08-31T07:39:36;2.90;;;1.83;;
18200;SDS011;9226;47.858;9.594;2023-08-31T07:42:01;3.33;;;2.17;;
18200;SDS011;9226;47.858;9.594;2023-08-31T07:44:27;2.93;;;1.90;;
18200;SDS011;9226;47.858;9.594;2023-08-31T07:46:52;5.27;;;2.00;;
18200;SDS011;9226;47.858;9.594;2023-08-31T07:49:18;3.20;;;1.80;;
18200;SDS011;9226;47.858;9.594;2023-08-31T07:51:43;5.50;;;2.00;;
18200;SDS011;9226;47.858;9.594;2023-08-31T07:54:09;4.43;;;1.60;;
18200;SDS011;9226;47.858;9.594;2023-08-31T07:56:34;4.67;;;2.07;;
18200;SDS011;9226;47.858;9.594;2023-08-31T07:59:00;3.47;;;1.70;;
18200;SDS011;9226;47.858;9.594;2023-08-31T08:01:25;3.20;;;1.80;;
18200;SDS011;9226;47.858;9.594;2023-08-31T08:03:50;2.53;;;1.70;;
18200;SDS011;9226;47.858;9.594;2023-08-31T08:06:16;3.73;;;1.67;;
18200;SDS011;9226;47.858;9.594;2023-08-31T08:08:42;8.27;;;1.83;;
18200;SDS011;9226;47.858;9.594;2023-08-31T08:11:07;3.13;;;1.70;;
18200;SDS011;9226;47.858;9.594;2023-08-31T08:13:33;6.67;;;1.97;;
18200;SDS011;9226;47.858;9.594;2023-08-31T08:15:58;4.20;;;2.03;;
18200;SDS011;9226;47.858;9.594;2023-08-31T08:18:23;2.50;;;1.60;;
18200;SDS011;9226;47.858;9.594;2023-08-31T08:20:52;3.07;;;1.67;;
18200;SDS011;9226;47.858;9.594;2023-08-31T08:23:17;2.10;;;1.50;;
18200;SDS011;9226;47.858;9.594;2023-08-31T08:25:43;6.73;;;2.10;;
18200;SDS011;9226;47.858;9.594;2023-08-31T08:28:08;11.20;;;2.03;;
18200;SDS011;9226;47.858;9.594;2023-08-31T08:30:33;4.13;;;1.70;;
18200;SDS011;9226;47.858;9.594;2023-08-31T08:32:59;2.27;;;1.50;;
18200;SDS011;9226;47.858;9.594;2023-08-31T08:35:24;3.93;;;1.70;;
18200;SDS011;9226;47.858;9.594;2023-08-31T08:37:52;3.60;;;1.60;;
18200;SDS011;9226;47.858;9.594;2023-08-31T08:40:18;3.37;;;1.47;;
18200;SDS011;9226;47.858;9.594;2023-08-31T08:42:44;3.90;;;1.77;;
18200;SDS011;9226;47.858;9.594;2023-08-31T08:45:15;5.47;;;1.53;;
18200;SDS011;9226;47.858;9.594;2023-08-31T08:47:42;7.47;;;1.80;;
18200;SDS011;9226;47.858;9.594;2023-08-31T08:50:09;4.27;;;1.43;;
18200;SDS011;9226;47.858;9.594;2023-08-31T08:52:38;3.67;;;1.80;;
18200;SDS011;9226;47.858;9.594;2023-08-31T08:55:04;6.57;;;1.90;;
18200;SDS011;9226;47.858;9.594;2023-08-31T08:57:31;3.90;;;1.50;;
18200;SDS011;9226;47.858;9.594;2023-08-31T08:59:57;3.43;;;1.57;;
18200;SDS011;9226;47.858;9.594;2023-08-31T09:02:23;4.30;;;1.83;;
18200;SDS011;9226;47.858;9.594;2023-08-31T09:04:48;3.10;;;1.43;;
18200;SDS011;9226;47.858;9.594;2023-08-31T09:07:17;2.77;;;1.53;;
18200;SDS011;9226;47.858;9.594;2023-08-31T09:09:50;2.80;;;1.50;;
18200;SDS011;9226;47.858;9.594;2023-08-31T09:12:16;4.90;;;2.00;;
18200;SDS011;9226;47.858;9.594;2023-08-31T09:14:42;4.87;;;1.70;;
18200;SDS011;9226;47.858;9.594;2023-08-31T09:17:08;3.47;;;1.43;;
18200;SDS011;9226;47.858;9.594;2023-08-31T09:19:33;4.33;;;1.73;;
18200;SDS011;9226;47.858;9.594;2023-08-31T09:22:00;3.47;;;1.40;;
18200;SDS011;9226;47.858;9.594;2023-08-31T09:24:25;6.27;;;1.60;;
18200;SDS011;9226;47.858;9.594;2023-08-31T09:26:55;3.40;;;1.60;;
18200;SDS011;9226;47.858;9.594;2023-08-31T09:29:22;3.53;;;1.70;;
18200;SDS011;9226;47.858;9.594;2023-08-31T09:31:47;2.53;;;1.30;;
18200;SDS011;9226;47.858;9.594;2023-08-31T09:34:16;7.27;;;1.80;;
18200;SDS011;9226;47.858;9.594;2023-08-31T09:36:43;4.93;;;1.60;;
18200;SDS011;9226;47.858;9.594;2023-08-31T09:39:09;3.57;;;1.50;;
18200;SDS011;9226;47.858;9.594;2023-08-31T09:41:51;4.63;;;1.70;;
18200;SDS011;9226;47.858;9.594;2023-08-31T09:44:18;4.03;;;1.70;;
18200;SDS011;9226;47.858;9.594;2023-08-31T09:46:45;5.47;;;1.67;;
18200;SDS011;9226;47.858;9.594;2023-08-31T09:49:13;3.53;;;1.70;;
18200;SDS011;9226;47.858;9.594;2023-08-31T09:51:41;4.67;;;1.50;;
18200;SDS011;9226;47.858;9.594;2023-08-31T09:54:12;3.70;;;1.43;;
18200;SDS011;9226;47.858;9.594;2023-08-31T09:56:38;2.60;;;1.70;;
18200;SDS011;9226;47.858;9.594;2023-08-31T09:59:06;3.30;;;1.77;;
18200;SDS011;9226;47.858;9.594;2023-08-31T10:01:32;2.57;;;1.30;;
18200;SDS011;9226;47.858;9.594;2023-08-31T10:03:58;4.07;;;1.37;;
18200;SDS011;9226;47.858;9.594;2023-08-31T10:06:24;5.30;;;1.77;;
18200;SDS011;9226;47.858;9.594;2023-08-31T10:08:51;4.77;;;1.60;;
18200;SDS011;9226;47.858;9.594;2023-08-31T10:11:17;9.83;;;1.93;;
18200;SDS011;9226;47.858;9.594;2023-08-31T10:13:43;6.17;;;2.10;;
18200;SDS011;9226;47.858;9.594;2023-08-31T10:16:12;4.87;;;1.80;;
18200;SDS011;9226;47.858;9.594;2023-08-31T10:18:38;3.80;;;1.90;;
18200;SDS011;9226;47.858;9.594;2023-08-31T10:21:04;8.37;;;2.50;;
18200;SDS011;9226;47.858;9.594;2023-08-31T10:23:29;38.77;;;7.03;;
18200;SDS011;9226;47.858;9.594;2023-08-31T10:26:04;13.53;;;3.50;;
18200;SDS011;9226;47.858;9.594;2023-08-31T10:28:29;7.27;;;2.70;;
18200;SDS011;9226;47.858;9.594;2023-08-31T10:31:03;4.77;;;1.90;;
18200;SDS011;9226;47.858;9.594;2023-08-31T10:33:34;3.43;;;1.53;;
18200;SDS011;9226;47.858;9.594;2023-08-31T10:36:11;3.43;;;1.63;;
18200;SDS011;9226;47.858;9.594;2023-08-31T10:38:37;4.10;;;1.40;;
18200;SDS011;9226;47.858;9.594;2023-08-31T10:41:16;4.83;;;2.13;;
18200;SDS011;9226;47.858;9.594;2023-08-31T10:43:47;4.07;;;1.40;;
18200;SDS011;9226;47.858;9.594;2023-08-31T10:51:36;3.73;;;1.50;;
18200;SDS011;9226;47.858;9.594;2023-08-31T10:54:13;5.77;;;1.80;;
18200;SDS011;9226;47.858;9.594;2023-08-31T10:59:23;8.13;;;2.13;;
18200;SDS011;9226;47.858;9.594;2023-08-31T11:04:22;4.53;;;1.63;;
18200;SDS011;9226;47.858;9.594;2023-08-31T11:06:49;6.30;;;1.77;;
18200;SDS011;9226;47.858;9.594;2023-08-31T11:09:35;4.97;;;1.63;;
18200;SDS011;9226;47.858;9.594;2023-08-31T11:12:01;7.27;;;2.33;;
18200;SDS011;9226;47.858;9.594;2023-08-31T11:14:27;5.37;;;1.77;;
18200;SDS011;9226;47.858;9.594;2023-08-31T11:16:52;6.83;;;1.70;;
18200;SDS011;9226;47.858;9.594;2023-08-31T11:19:18;2.23;;;1.43;;
18200;SDS011;9226;47.858;9.594;2023-08-31T11:21:43;4.10;;;2.10;;
18200;SDS011;9226;47.858;9.594;2023-08-31T11:24:08;6.30;;;1.60;;
18200;SDS011;9226;47.858;9.594;2023-08-31T11:26:34;7.20;;;1.80;;
18200;SDS011;9226;47.858;9.594;2023-08-31T11:29:00;3.03;;;2.10;;
18200;SDS011;9226;47.858;9.594;2023-08-31T11:31:25;3.93;;;1.40;;
18200;SDS011;9226;47.858;9.594;2023-08-31T11:33:51;5.47;;;1.97;;
18200;SDS011;9226;47.858;9.594;2023-08-31T11:36:16;6.00;;;2.10;;
18200;SDS011;9226;47.858;9.594;2023-08-31T11:38:47;4.50;;;1.60;;
18200;SDS011;9226;47.858;9.594;2023-08-31T11:41:13;3.80;;;1.50;;
18200;SDS011;9226;47.858;9.594;2023-08-31T11:43:39;3.57;;;2.67;;
18200;SDS011;9226;47.858;9.594;2023-08-31T11:46:05;2.83;;;1.77;;
18200;SDS011;9226;47.858;9.594;2023-08-31T11:48:31;6.60;;;2.00;;
18200;SDS011;9226;47.858;9.594;2023-08-31T11:50:57;5.40;;;1.93;;
18200;SDS011;9226;47.858;9.594;2023-08-31T11:53:24;3.00;;;1.77;;
18200;SDS011;9226;47.858;9.594;2023-08-31T11:55:51;4.10;;;1.50;;
18200;SDS011;9226;47.858;9.594;2023-08-31T11:58:21;3.37;;;1.83;;
18200;SDS011;9226;47.858;9.594;2023-08-31T12:00:59;7.07;;;2.00;;
18200;SDS011;9226;47.858;9.594;2023-08-31T12:03:25;7.03;;;2.03;;
18200;SDS011;9226;47.858;9.594;2023-08-31T12:05:51;2.90;;;1.50;;
18200;SDS011;9226;47.858;9.594;2023-08-31T12:08:26;3.10;;;1.60;;
18200;SDS011;9226;47.858;9.594;2023-08-31T12:10:52;5.83;;;1.90;;
18200;SDS011;9226;47.858;9.594;2023-08-31T12:13:18;8.10;;;2.00;;
18200;SDS011;9226;47.858;9.594;2023-08-31T12:15:43;3.43;;;1.60;;
18200;SDS011;9226;47.858;9.594;2023-08-31T12:18:09;4.87;;;1.77;;
18200;SDS011;9226;47.858;9.594;2023-08-31T12:20:45;5.80;;;1.83;;
18200;SDS011;9226;47.858;9.594;2023-08-31T12:23:17;5.87;;;1.80;;
18200;SDS011;9226;47.858;9.594;2023-08-31T12:25:51;3.97;;;1.60;;
18200;SDS011;9226;47.858;9.594;2023-08-31T12:28:18;2.73;;;1.67;;
18200;SDS011;9226;47.858;9.594;2023-08-31T12:30:54;5.50;;;1.70;;
18200;SDS011;9226;47.858;9.594;2023-08-31T12:33:21;3.47;;;1.37;;
18200;SDS011;9226;47.858;9.594;2023-08-31T12:35:47;4.23;;;1.80;;
18200;SDS011;9226;47.858;9.594;2023-08-31T12:38:13;3.53;;;1.50;;
18200;SDS011;9226;47.858;9.594;2023-08-31T12:40:39;7.63;;;1.70;;
18200;SDS011;9226;47.858;9.594;2023-08-31T12:43:05;4.23;;;1.70;;
18200;SDS011;9226;47.858;9.594;2023-08-31T12:45:31;2.77;;;1.40;;
18200;SDS011;9226;47.858;9.594;2023-08-31T12:47:56;3.87;;;1.53;;
18200;SDS011;9226;47.858;9.594;2023-08-31T12:50:22;3.77;;;1.97;;
18200;SDS011;9226;47.858;9.594;2023-08-31T12:52:48;3.77;;;1.87;;
18200;SDS011;9226;47.858;9.594;2023-08-31T12:55:13;4.53;;;2.07;;
18200;SDS011;9226;47.858;9.594;2023-08-31T12:57:39;3.13;;;1.60;;
18200;SDS011;9226;47.858;9.594;2023-08-31T13:00:06;3.30;;;1.60;;
18200;SDS011;9226;47.858;9.594;2023-08-31T13:02:42;3.57;;;1.63;;
18200;SDS011;9226;47.858;9.594;2023-08-31T13:05:08;2.67;;;1.53;;
18200;SDS011;9226;47.858;9.594;2023-08-31T13:07:37;5.50;;;1.60;;
18200;SDS011;9226;47.858;9.594;2023-08-31T13:10:03;4.70;;;1.60;;
18200;SDS011;9226;47.858;9.594;2023-08-31T13:12:30;4.77;;;1.67;;
18200;SDS011;9226;47.858;9.594;2023-08-31T13:14:56;7.57;;;1.73;;
18200;SDS011;9226;47.858;9.594;2023-08-31T13:17:22;3.97;;;1.80;;
18200;SDS011;9226;47.858;9.594;2023-08-31T13:19:51;3.40;;;1.70;;
18200;SDS011;9226;47.858;9.594;2023-08-31T13:22:20;3.10;;;1.87;;
18200;SDS011;9226;47.858;9.594;2023-08-31T13:24:46;6.23;;;1.63;;
18200;SDS011;9226;47.858;9.594;2023-08-31T13:27:12;6.43;;;1.80;;
18200;SDS011;9226;47.858;9.594;2023-08-31T13:29:38;2.73;;;1.53;;
18200;SDS011;9226;47.858;9.594;2023-08-31T13:32:04;3.40;;;1.63;;
18200;SDS011;9226;47.858;9.594;2023-08-31T13:34:31;5.10;;;1.63;;
18200;SDS011;9226;47.858;9.594;2023-08-31T13:36:56;3.07;;;1.67;;
18200;SDS011;9226;47.858;9.594;2023-08-31T13:39:22;5.47;;;1.77;;
18200;SDS011;9226;47.858;9.594;2023-08-31T13:41:52;3.97;;;1.60;;
18200;SDS011;9226;47.858;9.594;2023-08-31T13:44:19;3.93;;;1.70;;
18200;SDS011;9226;47.858;9.594;2023-08-31T13:46:48;8.37;;;2.20;;
18200;SDS011;9226;47.858;9.594;2023-08-31T13:49:14;6.80;;;1.97;;
18200;SDS011;9226;47.858;9.594;2023-08-31T13:51:40;5.03;;;1.53;;
18200;SDS011;9226;47.858;9.594;2023-08-31T13:54:06;3.43;;;1.50;;
18200;SDS011;9226;47.858;9.594;2023-08-31T13:56:33;3.50;;;1.67;;
18200;SDS011;9226;47.858;9.594;2023-08-31T13:58:58;4.43;;;1.90;;
18200;SDS011;9226;47.858;9.594;2023-08-31T14:01:25;2.93;;;1.80;;
18200;SDS011;9226;47.858;9.594;2023-08-31T14:03:50;7.57;;;2.00;;
18200;SDS011;9226;47.858;9.594;2023-08-31T14:06:16;4.20;;;1.90;;
18200;SDS011;9226;47.858;9.594;2023-08-31T14:08:41;7.43;;;2.07;;
18200;SDS011;9226;47.858;9.594;2023-08-31T14:11:06;4.97;;;1.70;;
18200;SDS011;9226;47.858;9.594;2023-08-31T14:13:32;5.30;;;1.43;;
18200;SDS011;9226;47.858;9.594;2023-08-31T14:15:58;2.90;;;1.57;;
18200;SDS011;9226;47.858;9.594;2023-08-31T14:18:25;6.33;;;2.07;;
18200;SDS011;9226;47.858;9.594;2023-08-31T14:20:53;7.90;;;1.70;;
18200;SDS011;9226;47.858;9.594;2023-08-31T14:23:19;5.70;;;1.87;;
18200;SDS011;9226;47.858;9.594;2023-08-31T14:25:44;7.20;;;2.13;;
18200;SDS011;9226;47.858;9.594;2023-08-31T14:28:10;4.27;;;1.90;;
18200;SDS011;9226;47.858;9.594;2023-08-31T14:30:35;4.20;;;2.00;;
18200;SDS011;9226;47.858;9.594;2023-08-31T14:33:02;6.20;;;1.77;;
18200;SDS011;9226;47.858;9.594;2023-08-31T14:35:27;5.83;;;2.17;;
18200;SDS011;9226;47.858;9.594;2023-08-31T14:37:53;5.37;;;1.93;;
18200;SDS011;9226;47.858;9.594;2023-08-31T14:40:18;2.13;;;1.73;;
18200;SDS011;9226;47.858;9.594;2023-08-31T14:42:44;5.33;;;2.20;;
18200;SDS011;9226;47.858;9.594;2023-08-31T14:45:09;4.53;;;1.90;;
18200;SDS011;9226;47.858;9.594;2023-08-31T14:47:35;3.73;;;1.90;;
18200;SDS011;9226;47.858;9.594;2023-08-31T14:50:00;7.57;;;2.20;;
18200;SDS011;9226;47.858;9.594;2023-08-31T14:52:25;3.07;;;1.63;;
18200;SDS011;9226;47.858;9.594;2023-08-31T14:54:51;4.00;;;1.80;;
18200;SDS011;9226;47.858;9.594;2023-08-31T14:57:17;3.13;;;1.90;;
18200;SDS011;9226;47.858;9.594;2023-08-31T14:59:42;4.00;;;1.70;;
18200;SDS011;9226;47.858;9.594;2023-08-31T15:02:08;4.20;;;1.80;;
18200;SDS011;9226;47.858;9.594;2023-08-31T15:04:33;4.80;;;1.87;;
18200;SDS011;9226;47.858;9.594;2023-08-31T15:06:59;6.33;;;2.03;;
18200;SDS011;9226;47.858;9.594;2023-08-31T15:09:25;3.80;;;1.57;;
18200;SDS011;9226;47.858;9.594;2023-08-31T15:11:51;2.60;;;1.80;;
18200;SDS011;9226;47.858;9.594;2023-08-31T15:14:16;5.87;;;1.90;;
18200;SDS011;9226;47.858;9.594;2023-08-31T15:16:42;4.57;;;2.20;;
18200;SDS011;9226;47.858;9.594;2023-08-31T15:19:07;3.00;;;1.80;;